Time;durP1;ratioP1;P1;durP2;ratioP2;P2;SDS_P1;SDS_P2;PMS_P1;PMS_P2;Temp;Humidity;BMP_temperature;BMP_pressure;BME280_temperature;BME280_humidity;BME280_pressure;Samples;Min_cycle;Max_cycle;Signal;HPM_P1;HPM_P2
2023/05/08 03:57:40;;;;;;;1.10;1.10;;;12.90;99.90;;;;;;5544702;23;20231;-74
2023/05/08 04:00:14;;;;;;;1.65;1.00;;;12.90;99.90;;;;;;4975862;28;20296;-74
2023/05/08 04:02:46;;;;;;;0.90;0.90;;;12.90;99.90;;;;;;4976940;28;20188;-72
2023/05/08 04:05:21;;;;;;;0.75;0.75;;;12.90;99.90;;;;;;4975748;28;20539;-74
2023/05/08 04:07:52;;;;;;;0.85;0.85;;;12.90;99.90;;;;;;4976631;28;20231;-74
2023/05/08 04:10:24;;;;;;;0.80;0.80;;;12.90;99.90;;;;;;4976496;28;20607;-75
2023/05/08 04:12:59;;;;;;;0.82;0.82;;;12.90;99.90;;;;;;4976439;28;20284;-74
2023/05/08 04:15:29;;;;;;;0.73;0.73;;;12.90;99.90;;;;;;4975760;28;20227;-73
2023/05/08 04:18:03;;;;;;;0.73;0.73;;;13.00;99.90;;;;;;4975669;28;20330;-73
2023/05/08 04:20:32;;;;;;;0.80;0.80;;;13.00;99.90;;;;;;4975735;28;20184;-75
2023/05/08 04:23:00;;;;;;;0.80;0.80;;;13.00;99.90;;;;;;4975586;28;20274;-76
2023/05/08 04:25:30;;;;;;;0.80;0.80;;;13.00;99.90;;;;;;4975965;28;20231;-75
2023/05/08 04:27:59;;;;;;;0.70;0.70;;;13.00;99.90;;;;;;4975403;28;20259;-75
2023/05/08 04:30:26;;;;;;;0.75;0.75;;;13.00;99.90;;;;;;4975515;28;20218;-75
2023/05/08 04:32:53;;;;;;;0.85;0.85;;;13.00;99.90;;;;;;4975925;28;20230;-74
2023/05/08 04:35:20;;;;;;;0.63;0.63;;;13.00;99.90;;;;;;4975276;28;20223;-76
2023/05/08 04:37:47;;;;;;;0.75;0.75;;;13.10;99.90;;;;;;4975382;28;20227;-74
2023/05/08 04:40:14;;;;;;;0.70;0.70;;;13.10;99.90;;;;;;4975071;28;20671;-74
2023/05/08 04:42:42;;;;;;;0.70;0.70;;;13.10;99.90;;;;;;4975454;28;20207;-75
2023/05/08 04:45:11;;;;;;;0.80;0.80;;;13.20;99.90;;;;;;4975251;28;20279;-76
2023/05/08 04:47:38;;;;;;;0.70;0.70;;;13.20;99.90;;;;;;4975382;28;20261;-76
2023/05/08 04:50:05;;;;;;;0.85;0.85;;;13.30;99.90;;;;;;4975183;28;20199;-77
2023/05/08 04:52:32;;;;;;;0.90;0.90;;;13.30;99.90;;;;;;4975181;28;20214;-73
2023/05/08 04:54:58;;;;;;;0.75;0.75;;;13.30;99.90;;;;;;4975037;28;20223;-73
2023/05/08 04:57:25;;;;;;;0.70;0.70;;;13.40;99.90;;;;;;4974877;28;20223;-73
2023/05/08 04:59:52;;;;;;;1.10;1.10;;;13.50;99.90;;;;;;4974647;28;20222;-73
2023/05/08 05:02:20;;;;;;;1.00;1.00;;;13.60;99.90;;;;;;4974952;28;20204;-73
2023/05/08 05:04:46;;;;;;;0.88;0.88;;;13.70;99.90;;;;;;4975023;28;20295;-72
2023/05/08 05:07:13;;;;;;;0.90;0.90;;;13.80;99.90;;;;;;4974986;28;20274;-72
2023/05/08 05:09:40;;;;;;;0.98;0.98;;;13.80;99.90;;;;;;4974921;28;20252;-72
2023/05/08 05:12:07;;;;;;;0.70;0.70;;;13.90;99.90;;;;;;4974979;28;20203;-74
2023/05/08 05:14:34;;;;;;;0.80;0.80;;;14.00;99.90;;;;;;4974714;28;20219;-75
2023/05/08 05:17:01;;;;;;;0.70;0.70;;;14.00;99.90;;;;;;4974760;28;20619;-73
2023/05/08 05:19:29;;;;;;;0.80;0.80;;;14.10;99.90;;;;;;4974982;28;20219;-73
2023/05/08 05:21:56;;;;;;;0.80;0.80;;;14.10;99.90;;;;;;4975130;28;20207;-73
2023/05/08 05:24:23;;;;;;;0.80;0.80;;;14.10;99.90;;;;;;4974939;28;20199;-73
2023/05/08 05:26:49;;;;;;;0.90;0.90;;;14.10;99.90;;;;;;4974827;28;20226;-73
2023/05/08 05:29:16;;;;;;;0.85;0.85;;;14.10;99.90;;;;;;4974918;28;20203;-73
2023/05/08 05:31:43;;;;;;;0.88;0.88;;;14.20;99.90;;;;;;4974679;28;20232;-72
2023/05/08 05:34:10;;;;;;;0.90;0.90;;;14.30;99.90;;;;;;4974318;28;20618;-72
2023/05/08 05:36:38;;;;;;;0.90;0.90;;;14.30;99.90;;;;;;4975367;28;20207;-71
2023/05/08 05:39:04;;;;;;;0.70;0.70;;;14.40;99.90;;;;;;4975379;28;20207;-72
2023/05/08 05:41:31;;;;;;;0.63;0.63;;;14.50;99.90;;;;;;4974613;28;20612;-72
2023/05/08 05:43:58;;;;;;;1.02;1.02;;;14.50;99.90;;;;;;4974950;28;20210;-72
2023/05/08 05:46:26;;;;;;;1.08;1.08;;;14.50;99.90;;;;;;4975752;28;20206;-72
2023/05/08 05:48:53;;;;;;;0.90;0.90;;;14.60;99.90;;;;;;4978607;28;20218;-72
2023/05/08 05:51:20;;;;;;;0.88;0.88;;;14.80;99.90;;;;;;4978707;28;20203;-72
2023/05/08 05:53:48;;;;;;;0.80;0.80;;;14.90;99.90;;;;;;4978538;28;20697;-72
2023/05/08 05:56:15;;;;;;;0.77;0.77;;;15.00;99.90;;;;;;4978858;28;20226;-72
2023/05/08 05:58:44;;;;;;;0.82;0.82;;;15.10;99.90;;;;;;4978468;28;20223;-72
2023/05/08 06:01:10;;;;;;;0.80;0.80;;;15.20;99.90;;;;;;4978113;28;20214;-72
2023/05/08 06:03:37;;;;;;;0.85;0.75;;;15.30;99.90;;;;;;4978242;28;20203;-72
2023/05/08 06:06:04;;;;;;;0.80;0.80;;;15.40;99.90;;;;;;4978262;28;20199;-72
2023/05/08 06:08:31;;;;;;;0.80;0.80;;;15.40;99.90;;;;;;4978220;28;20309;-72
2023/05/08 06:10:59;;;;;;;1.13;0.95;;;15.60;99.90;;;;;;4978289;28;20203;-72
2023/05/08 06:13:25;;;;;;;0.90;0.90;;;15.70;99.90;;;;;;4978179;28;20203;-72
2023/05/08 06:15:55;;;;;;;1.13;1.13;;;15.80;99.90;;;;;;4977748;28;20690;-72
2023/05/08 06:18:22;;;;;;;1.20;1.20;;;15.80;99.90;;;;;;4977932;28;20224;-73
2023/05/08 06:20:49;;;;;;;1.08;1.08;;;15.90;99.90;;;;;;4978020;28;20610;-73
2023/05/08 06:23:16;;;;;;;0.85;0.85;;;15.90;99.90;;;;;;4978020;28;20208;-73
2023/05/08 06:25:42;;;;;;;1.08;1.08;;;16.00;99.90;;;;;;4977971;28;20199;-73
2023/05/08 06:28:10;;;;;;;1.17;1.08;;;16.00;99.90;;;;;;4977811;28;20235;-73
2023/05/08 06:30:37;;;;;;;0.85;0.85;;;16.00;99.90;;;;;;4977779;28;20219;-72
2023/05/08 06:33:04;;;;;;;1.10;1.10;;;15.80;99.90;;;;;;4977784;28;20200;-72
2023/05/08 06:35:30;;;;;;;1.30;1.30;;;15.70;99.90;;;;;;4979222;28;20226;-72
2023/05/08 06:37:57;;;;;;;0.98;0.98;;;15.70;99.90;;;;;;4982465;28;20231;-72
2023/05/08 06:40:24;;;;;;;1.00;1.00;;;15.70;99.90;;;;;;4982904;28;20207;-72
2023/05/08 06:42:50;;;;;;;1.30;1.30;;;15.60;99.90;;;;;;4981635;28;20211;-72
2023/05/08 06:45:19;;;;;;;1.02;1.02;;;15.50;99.90;;;;;;4980825;28;20199;-72
2023/05/08 06:47:45;;;;;;;0.73;0.73;;;15.50;99.90;;;;;;4978983;28;20594;-73
2023/05/08 06:50:12;;;;;;;0.80;0.80;;;15.50;99.90;;;;;;4980342;28;20219;-73
2023/05/08 06:52:39;;;;;;;0.82;0.82;;;15.50;99.90;;;;;;4980078;28;20199;-73
2023/05/08 06:55:06;;;;;;;1.00;1.00;;;15.50;99.90;;;;;;4979793;28;20262;-73
2023/05/08 06:57:33;;;;;;;1.55;1.45;;;15.50;99.90;;;;;;4979595;28;20317;-73
2023/05/08 07:00:00;;;;;;;1.00;1.00;;;15.50;99.90;;;;;;4978082;28;20215;-73
2023/05/08 07:02:28;;;;;;;1.13;1.13;;;15.60;99.90;;;;;;4978969;28;20203;-73
2023/05/08 07:04:54;;;;;;;0.90;0.90;;;15.80;99.90;;;;;;4978377;28;20203;-73
2023/05/08 07:07:21;;;;;;;1.15;1.10;;;16.00;99.90;;;;;;4977839;28;20243;-72
2023/05/08 07:09:48;;;;;;;2.42;1.23;;;16.10;99.90;;;;;;4977758;28;20213;-73
2023/05/08 07:12:15;;;;;;;1.50;1.00;;;16.20;99.90;;;;;;4977518;28;20210;-73
2023/05/08 07:14:42;;;;;;;2.25;1.05;;;16.20;99.90;;;;;;4977537;28;20226;-73
2023/05/08 07:17:09;;;;;;;0.90;0.90;;;16.30;99.90;;;;;;4977181;28;20227;-73
2023/05/08 07:19:37;;;;;;;1.00;1.00;;;16.30;99.90;;;;;;4977026;28;20207;-73
2023/05/08 07:22:05;;;;;;;0.93;0.85;;;16.30;99.90;;;;;;4976836;28;20567;-73
2023/05/08 07:24:32;;;;;;;1.10;1.10;;;16.30;99.90;;;;;;4977184;28;20203;-73
2023/05/08 07:26:59;;;;;;;2.05;1.30;;;16.30;99.90;;;;;;4976966;28;20223;-73
2023/05/08 07:29:25;;;;;;;0.73;0.73;;;16.20;99.90;;;;;;4976834;28;20239;-73
2023/05/08 07:31:52;;;;;;;1.23;0.90;;;16.20;99.90;;;;;;4977062;28;20286;-72
2023/05/08 07:34:19;;;;;;;0.85;0.85;;;16.20;99.90;;;;;;4976880;28;20211;-72
2023/05/08 07:36:47;;;;;;;1.65;1.00;;;16.20;99.90;;;;;;4976872;28;20223;-72
2023/05/08 07:39:14;;;;;;;1.60;1.00;;;16.20;99.90;;;;;;4976620;28;20203;-72
2023/05/08 07:41:41;;;;;;;0.90;0.90;;;16.30;99.90;;;;;;4976759;28;20207;-72
2023/05/08 07:44:08;;;;;;;1.23;1.00;;;16.40;99.90;;;;;;4976601;28;20214;-72
2023/05/08 07:46:34;;;;;;;0.70;0.70;;;16.50;99.90;;;;;;4977362;28;20199;-72
2023/05/08 07:49:01;;;;;;;0.80;0.80;;;16.70;99.90;;;;;;4977436;28;20258;-73
2023/05/08 07:51:28;;;;;;;0.82;0.82;;;16.90;99.90;;;;;;4977369;28;20217;-72
2023/05/08 07:53:56;;;;;;;0.85;0.85;;;17.10;99.90;;;;;;4976620;28;20548;-72
2023/05/08 07:56:23;;;;;;;1.23;1.00;;;17.20;99.90;;;;;;4976938;28;20278;-73
2023/05/08 07:58:49;;;;;;;1.58;0.75;;;17.30;99.90;;;;;;4976224;28;20281;-73
2023/05/08 08:01:17;;;;;;;0.88;0.88;;;17.30;99.90;;;;;;4975991;28;20214;-73
2023/05/08 08:03:44;;;;;;;0.80;0.80;;;17.40;99.90;;;;;;4976229;28;20285;-73
2023/05/08 08:06:10;;;;;;;0.70;0.70;;;17.50;99.90;;;;;;4976144;28;20203;-73
2023/05/08 08:08:37;;;;;;;1.10;1.10;;;17.70;99.90;;;;;;4976843;28;20230;-73
2023/05/08 08:11:06;;;;;;;2.05;1.27;;;17.90;99.90;;;;;;4975231;28;20223;-73
2023/05/08 08:13:32;;;;;;;1.20;0.80;;;18.00;99.90;;;;;;4975700;28;20202;-73
2023/05/08 08:16:02;;;;;;;1.00;0.90;;;18.10;99.90;;;;;;4976030;28;20219;-73
2023/05/08 08:18:29;;;;;;;0.60;0.60;;;18.20;99.90;;;;;;4976095;28;20230;-73
2023/05/08 08:20:56;;;;;;;0.60;0.60;;;18.40;99.90;;;;;;4976209;28;20651;-73
2023/05/08 08:23:23;;;;;;;0.50;0.50;;;18.90;99.90;;;;;;4975938;28;20261;-72
2023/05/08 08:25:50;;;;;;;0.50;0.50;;;19.50;99.90;;;;;;4975738;28;20249;-72
2023/05/08 08:28:18;;;;;;;0.50;0.50;;;20.00;99.90;;;;;;4975543;28;20258;-72
2023/05/08 08:30:44;;;;;;;0.63;0.63;;;20.30;99.90;;;;;;4975708;28;20199;-72
2023/05/08 08:33:11;;;;;;;0.52;0.52;;;20.40;99.90;;;;;;4975636;28;20211;-73
2023/05/08 08:35:38;;;;;;;0.80;0.80;;;20.60;99.90;;;;;;4975535;28;20233;-72
2023/05/08 08:38:04;;;;;;;0.57;0.57;;;20.40;99.90;;;;;;4975438;28;20223;-72
2023/05/08 08:40:31;;;;;;;0.60;0.60;;;20.60;99.90;;;;;;4975651;28;20199;-73
2023/05/08 08:42:58;;;;;;;0.65;0.65;;;20.90;99.90;;;;;;4975259;28;20717;-72
2023/05/08 08:45:26;;;;;;;0.50;0.50;;;21.10;99.90;;;;;;4975338;28;20203;-73
2023/05/08 08:47:54;;;;;;;0.50;0.50;;;21.20;99.90;;;;;;4975288;28;20219;-73
2023/05/08 08:50:22;;;;;;;4.03;0.63;;;20.90;99.90;;;;;;4975188;28;20302;-73
2023/05/08 08:52:59;;;;;;;1.35;0.73;;;20.70;99.90;;;;;;4975333;28;20202;-72
2023/05/08 08:55:26;;;;;;;0.60;0.60;;;20.20;99.90;;;;;;4975288;28;20210;-73
2023/05/08 08:58:03;;;;;;;0.50;0.50;;;20.00;99.90;;;;;;4975020;28;20230;-73
2023/05/08 09:00:32;;;;;;;1.33;0.60;;;19.70;99.90;;;;;;4974963;28;20681;-73
2023/05/08 09:03:00;;;;;;;2.15;0.80;;;19.20;99.90;;;;;;4975225;28;20206;-73
2023/05/08 09:05:27;;;;;;;0.80;0.80;;;18.90;99.90;;;;;;4974813;28;20635;-72
2023/05/08 09:07:55;;;;;;;0.77;0.77;;;18.80;99.90;;;;;;4975060;28;20234;-72
2023/05/08 09:10:23;;;;;;;0.68;0.68;;;18.60;99.90;;;;;;4975197;28;20230;-72
2023/05/08 09:12:50;;;;;;;0.80;0.80;;;18.50;99.90;;;;;;4975154;28;20269;-72
2023/05/08 09:15:17;;;;;;;0.65;0.60;;;18.40;99.90;;;;;;4974873;28;20218;-73
2023/05/08 09:17:45;;;;;;;0.60;0.57;;;18.40;99.90;;;;;;4974846;28;20231;-72
2023/05/08 09:20:14;;;;;;;0.60;0.60;;;18.40;99.90;;;;;;4974963;28;20209;-73
2023/05/08 09:22:42;;;;;;;0.52;0.52;;;18.50;99.90;;;;;;4974515;28;20253;-73
2023/05/08 09:25:10;;;;;;;1.67;0.90;;;18.80;99.90;;;;;;4974772;28;20214;-74
2023/05/08 09:27:37;;;;;;;0.82;0.82;;;19.10;99.90;;;;;;4974846;28;20222;-73
2023/05/08 09:30:05;;;;;;;2.33;0.75;;;19.30;99.90;;;;;;4975097;28;20209;-73
2023/05/08 09:32:34;;;;;;;0.93;0.85;;;19.60;99.90;;;;;;4974776;28;20203;-73
2023/05/08 09:35:03;;;;;;;0.60;0.60;;;19.80;99.90;;;;;;4974640;28;20207;-74
2023/05/08 09:37:30;;;;;;;0.60;0.60;;;20.00;99.90;;;;;;4974608;28;20222;-72
2023/05/08 09:40:14;;;;;;;0.57;0.50;;;20.20;99.90;;;;;;4974674;28;20206;-73
2023/05/08 09:42:40;;;;;;;0.52;0.52;;;20.60;99.90;;;;;;4974605;28;20186;-72
2023/05/08 09:45:08;;;;;;;0.68;0.68;;;20.90;99.90;;;;;;4974379;28;20705;-73
2023/05/08 09:47:38;;;;;;;1.75;0.75;;;20.90;99.90;;;;;;4974509;28;20254;-72
2023/05/08 09:50:08;;;;;;;0.73;0.73;;;20.60;99.90;;;;;;4974640;28;20203;-73
2023/05/08 09:52:36;;;;;;;1.00;1.00;;;20.20;99.90;;;;;;4974589;28;20277;-72
2023/05/08 09:55:04;;;;;;;0.70;0.70;;;20.00;99.90;;;;;;4974495;28;20228;-72
2023/05/08 09:57:32;;;;;;;0.63;0.63;;;19.70;99.90;;;;;;4974558;28;20583;-74
2023/05/08 10:00:04;;;;;;;0.50;0.50;;;19.60;99.90;;;;;;4974187;28;20218;-72
2023/05/08 10:02:31;;;;;;;0.60;0.60;;;19.50;99.90;;;;;;4974436;28;20209;-72
2023/05/08 10:04:58;;;;;;;0.55;0.55;;;19.40;99.90;;;;;;4974502;28;20202;-73
2023/05/08 10:07:30;;;;;;;0.73;0.70;;;19.40;99.90;;;;;;4974875;28;20223;-74
2023/05/08 10:10:04;;;;;;;0.55;0.55;;;19.30;99.90;;;;;;4974129;28;20202;-72
2023/05/08 10:12:32;;;;;;;0.50;0.50;;;19.40;99.90;;;;;;4975019;28;20207;-72
2023/05/08 10:14:59;;;;;;;0.77;0.77;;;19.30;99.90;;;;;;4974479;28;20229;-71
2023/05/08 10:17:30;;;;;;;0.60;0.60;;;19.40;99.90;;;;;;4974346;28;20227;-72
2023/05/08 10:20:00;;;;;;;0.43;0.43;;;19.60;99.90;;;;;;4974490;28;20187;-72
2023/05/08 10:22:32;;;;;;;0.50;0.50;;;19.70;99.90;;;;;;4974527;28;20239;-72
2023/05/08 10:25:02;;;;;;;0.60;0.60;;;19.80;99.90;;;;;;4974403;28;20191;-73
2023/05/08 10:27:38;;;;;;;0.60;0.60;;;20.00;99.90;;;;;;4974249;28;20226;-73
2023/05/08 10:30:07;;;;;;;1.17;0.65;;;20.20;99.90;;;;;;4974357;28;20191;-72
2023/05/08 10:32:40;;;;;;;0.70;0.70;;;20.40;99.90;;;;;;4974293;28;20206;-72
2023/05/08 10:35:10;;;;;;;0.55;0.55;;;20.40;99.90;;;;;;4977713;28;20579;-72
2023/05/08 10:37:40;;;;;;;0.80;0.80;;;20.50;99.90;;;;;;4977642;28;20309;-73
2023/05/08 10:40:09;;;;;;;0.70;0.70;;;20.40;99.90;;;;;;4977599;28;20281;-72
2023/05/08 10:42:36;;;;;;;1.40;0.60;;;20.30;99.90;;;;;;4977651;28;20257;-73
2023/05/08 10:45:05;;;;;;;0.60;0.60;;;20.10;99.90;;;;;;4978162;28;20274;-72
2023/05/08 10:47:43;;;;;;;0.60;0.60;;;19.80;99.90;;;;;;4977784;28;20257;-72
2023/05/08 10:50:28;;;;;;;1.05;0.93;;;19.50;99.90;;;;;;4977629;28;20198;-73
2023/05/08 10:53:05;;;;;;;1.25;0.70;;;19.10;99.90;;;;;;4977197;28;20603;-72
2023/05/08 10:55:33;;;;;;;1.42;0.80;;;18.70;99.90;;;;;;4977609;28;20190;-72
2023/05/08 10:58:12;;;;;;;1.13;1.10;;;18.40;99.90;;;;;;4976959;28;20706;-73
2023/05/08 11:01:16;;;;;;;1.25;1.20;;;17.90;99.90;;;;;;4977117;28;20210;-73
2023/05/08 11:03:49;;;;;;;3.22;1.20;;;17.50;99.90;;;;;;4977388;28;20202;-72
2023/05/08 11:06:16;;;;;;;1.30;1.20;;;17.00;99.90;;;;;;4977276;28;20199;-73
2023/05/08 11:08:49;;;;;;;1.38;1.20;;;16.80;99.90;;;;;;4977478;28;20226;-72
2023/05/08 11:11:25;;;;;;;0.90;0.90;;;16.60;99.90;;;;;;4977156;28;20198;-72
2023/05/08 11:13:55;;;;;;;1.10;1.10;;;16.60;99.90;;;;;;4977150;28;20215;-72
2023/05/08 11:16:59;;;;;;;1.15;1.15;;;16.50;99.90;;;;;;4977411;28;20274;-72
2023/05/08 11:19:27;;;;;;;1.10;1.10;;;16.50;99.90;;;;;;4978975;28;20210;-71
2023/05/08 11:22:21;;;;;;;1.27;1.27;;;16.50;99.90;;;;;;4979064;28;20203;-72
2023/05/08 11:24:55;;;;;;;1.13;1.13;;;16.20;99.90;;;;;;4978274;28;20571;-72
2023/05/08 11:28:00;;;;;;;1.30;1.30;;;16.10;99.90;;;;;;4978763;28;20737;-71
2023/05/08 11:30:34;;;;;;;1.17;1.17;;;16.00;99.90;;;;;;4977645;28;20226;-72
2023/05/08 11:33:15;;;;;;;1.50;1.40;;;16.00;99.90;;;;;;4977212;28;20198;-71
2023/05/08 11:35:53;;;;;;;1.10;1.10;;;15.80;99.90;;;;;;4977357;28;20187;-72
2023/05/08 11:38:23;;;;;;;1.30;1.20;;;15.70;99.90;;;;;;4976920;28;20227;-72
2023/05/08 11:40:58;;;;;;;1.25;1.25;;;15.70;99.90;;;;;;4976902;28;20187;-70
2023/05/08 11:43:31;;;;;;;1.30;1.30;;;15.60;99.90;;;;;;4976531;28;20639;-71
2023/05/08 11:46:00;;;;;;;1.20;1.20;;;15.50;99.90;;;;;;4976538;28;20188;-72
2023/05/08 11:48:27;;;;;;;1.60;1.50;;;15.40;99.90;;;;;;4976505;28;20223;-71
2023/05/08 11:50:54;;;;;;;1.48;1.48;;;15.30;99.90;;;;;;4976535;28;20210;-73
2023/05/08 11:53:21;;;;;;;0.93;0.93;;;15.10;99.90;;;;;;4976536;28;20200;-71
2023/05/08 11:55:48;;;;;;;1.20;1.20;;;15.00;99.90;;;;;;4976414;28;20567;-71
2023/05/08 11:58:16;;;;;;;1.38;1.15;;;14.90;99.90;;;;;;4976448;28;20314;-71
2023/05/08 12:00:44;;;;;;;1.00;1.00;;;14.80;99.90;;;;;;4976061;28;20211;-70
2023/05/08 12:03:13;;;;;;;1.13;1.13;;;14.80;99.90;;;;;;4976650;28;20245;-73
2023/05/08 12:05:40;;;;;;;1.10;1.10;;;14.70;99.90;;;;;;4976252;28;20235;-72
2023/05/08 12:08:07;;;;;;;0.90;0.90;;;14.70;99.90;;;;;;4975953;28;20223;-71
2023/05/08 12:10:40;;;;;;;1.10;1.10;;;14.70;99.90;;;;;;4976686;28;20234;-72
2023/05/08 12:13:17;;;;;;;0.75;0.75;;;14.70;99.90;;;;;;4976272;28;20270;-72
2023/05/08 12:15:45;;;;;;;1.00;1.00;;;14.70;99.90;;;;;;4975796;28;20555;-73
2023/05/08 12:18:12;;;;;;;1.30;1.30;;;14.60;99.90;;;;;;4975777;28;20231;-73
2023/05/08 12:20:39;;;;;;;1.20;1.20;;;14.60;99.90;;;;;;4975919;28;20211;-74
2023/05/08 12:23:07;;;;;;;1.27;1.27;;;14.50;99.90;;;;;;4976183;28;20211;-74
2023/05/08 12:25:34;;;;;;;0.93;0.93;;;14.40;99.90;;;;;;4976965;28;20212;-74
2023/05/08 12:28:03;;;;;;;0.90;0.90;;;14.40;99.90;;;;;;4975936;28;20590;-73
2023/05/08 12:30:33;;;;;;;0.90;0.90;;;14.40;99.90;;;;;;4976522;28;20626;-72
2023/05/08 12:33:01;;;;;;;1.05;1.05;;;14.50;99.90;;;;;;4975890;28;20298;-73
2023/05/08 12:35:30;;;;;;;1.10;1.10;;;14.40;99.90;;;;;;4975789;28;20663;-74
2023/05/08 12:38:02;;;;;;;1.38;1.17;;;14.40;99.90;;;;;;4975517;28;20227;-73
2023/05/08 12:40:31;;;;;;;0.93;0.93;;;14.40;99.90;;;;;;4976395;28;20293;-73
2023/05/08 12:43:01;;;;;;;1.40;0.90;;;14.40;99.90;;;;;;4975809;28;20242;-72
2023/05/08 12:45:32;;;;;;;0.80;0.80;;;14.40;99.90;;;;;;4975502;28;20187;-72
2023/05/08 12:48:00;;;;;;;1.15;1.15;;;14.50;99.90;;;;;;4975715;28;20219;-74
2023/05/08 12:50:29;;;;;;;0.98;0.98;;;14.50;99.90;;;;;;4975870;28;20203;-74
2023/05/08 12:53:03;;;;;;;0.88;0.88;;;14.50;99.90;;;;;;4975589;28;20211;-73
2023/05/08 12:55:31;;;;;;;0.80;0.80;;;14.40;99.90;;;;;;4974923;28;20679;-74
2023/05/08 12:58:02;;;;;;;0.70;0.70;;;14.40;99.90;;;;;;4975009;28;20234;-73
2023/05/08 13:00:38;;;;;;;1.00;0.63;;;14.50;99.90;;;;;;4975157;28;20211;-73
2023/05/08 13:03:06;;;;;;;0.70;0.70;;;14.50;99.90;;;;;;4975318;28;20261;-73
2023/05/08 13:05:34;;;;;;;0.70;0.70;;;14.50;99.90;;;;;;4975172;28;20203;-74
2023/05/08 13:08:01;;;;;;;0.60;0.60;;;14.60;99.90;;;;;;4975045;28;20700;-74
2023/05/08 13:10:46;;;;;;;0.70;0.70;;;14.70;99.90;;;;;;4974725;28;20667;-73
2023/05/08 13:13:14;;;;;;;0.70;0.70;;;14.90;99.90;;;;;;4975017;28;20271;-74
2023/05/08 13:15:43;;;;;;;0.50;0.50;;;15.00;99.90;;;;;;4974937;28;20548;-74
2023/05/08 13:18:10;;;;;;;0.60;0.60;;;15.20;99.90;;;;;;4974870;28;20227;-73
2023/05/08 13:20:37;;;;;;;0.60;0.60;;;15.40;99.90;;;;;;4975067;28;20188;-74
2023/05/08 13:23:05;;;;;;;0.50;0.50;;;15.50;99.90;;;;;;4975002;28;20574;-73
2023/05/08 13:25:32;;;;;;;0.50;0.50;;;15.70;99.90;;;;;;4974965;28;20254;-74
2023/05/08 13:27:59;;;;;;;0.50;0.50;;;15.90;99.90;;;;;;4974858;28;20219;-74
2023/05/08 13:30:26;;;;;;;0.52;0.52;;;16.10;99.90;;;;;;4974892;28;20512;-73
2023/05/08 13:32:54;;;;;;;0.40;0.40;;;16.30;99.90;;;;;;4974680;28;20693;-74
2023/05/08 13:35:22;;;;;;;0.82;0.60;;;16.50;99.90;;;;;;4974737;28;20226;-74
2023/05/08 13:37:49;;;;;;;0.50;0.50;;;16.70;99.90;;;;;;4974573;28;20231;-74
2023/05/08 13:40:16;;;;;;;0.68;0.55;;;16.80;99.90;;;;;;4974463;28;20582;-74
2023/05/08 13:42:43;;;;;;;0.60;0.60;;;17.10;99.90;;;;;;4974590;28;20203;-74
2023/05/08 13:45:13;;;;;;;0.70;0.70;;;17.30;99.90;;;;;;4974695;28;20606;-74
2023/05/08 13:47:40;;;;;;;0.60;0.60;;;17.60;99.90;;;;;;4974734;28;20226;-73
2023/05/08 13:50:10;;;;;;;0.70;0.70;;;17.60;99.90;;;;;;4974677;28;20230;-75
2023/05/08 13:52:37;;;;;;;0.80;0.80;;;17.50;99.90;;;;;;4974350;28;20610;-74
2023/05/08 13:55:05;;;;;;;0.43;0.43;;;17.60;99.90;;;;;;4974676;28;20203;-74
2023/05/08 13:57:32;;;;;;;0.50;0.50;;;17.60;99.90;;;;;;4974421;28;20230;-73
2023/05/08 13:59:58;;;;;;;0.90;0.90;;;17.70;99.90;;;;;;4974450;28;20238;-73
2023/05/08 14:02:25;;;;;;;0.80;0.80;;;17.80;99.90;;;;;;4974822;28;20203;-73
2023/05/08 14:04:52;;;;;;;0.93;0.93;;;18.00;99.90;;;;;;4974621;28;20187;-75
2023/05/08 14:07:20;;;;;;;0.75;0.75;;;17.90;99.90;;;;;;4975192;28;20277;-75
2023/05/08 14:09:47;;;;;;;0.70;0.70;;;17.80;99.90;;;;;;4978324;28;20202;-73
2023/05/08 14:12:14;;;;;;;0.70;0.70;;;17.70;99.90;;;;;;4978289;28;20265;-73
2023/05/08 14:14:41;;;;;;;1.25;1.25;;;17.60;99.90;;;;;;4978327;28;20213;-74
2023/05/08 14:17:08;;;;;;;1.77;0.90;;;17.60;99.90;;;;;;4978033;28;20223;-73
2023/05/08 14:19:35;;;;;;;1.42;1.42;;;17.50;99.90;;;;;;4977687;28;20666;-73
2023/05/08 14:22:01;;;;;;;1.83;1.73;;;17.30;99.90;;;;;;4978016;28;20202;-73
2023/05/08 14:24:29;;;;;;;2.55;2.45;;;17.10;99.90;;;;;;4978011;28;20202;-73
2023/05/08 14:26:58;;;;;;;2.20;2.20;;;16.90;99.90;;;;;;4977929;28;20219;-72
2023/05/08 14:29:24;;;;;;;2.00;1.90;;;16.80;99.90;;;;;;4977975;28;20209;-73
2023/05/08 14:31:51;;;;;;;1.90;1.90;;;16.80;99.90;;;;;;4977881;28;20202;-72
2023/05/08 14:34:18;;;;;;;2.35;2.25;;;17.00;99.90;;;;;;4977782;28;20203;-73
2023/05/08 14:36:44;;;;;;;3.47;3.28;;;17.10;99.90;;;;;;4977714;28;20215;-74
2023/05/08 14:39:11;;;;;;;2.95;2.80;;;17.20;99.90;;;;;;4977763;28;20213;-74
2023/05/08 14:41:39;;;;;;;2.83;2.65;;;17.20;99.90;;;;;;4977869;28;20203;-74
2023/05/08 14:44:06;;;;;;;2.00;1.90;;;17.30;99.90;;;;;;4977729;28;20198;-74
2023/05/08 14:46:33;;;;;;;3.63;1.73;;;17.30;99.90;;;;;;4977574;28;20215;-74
2023/05/08 14:48:59;;;;;;;1.33;1.33;;;17.30;99.90;;;;;;4978243;28;20199;-74
2023/05/08 14:51:27;;;;;;;1.85;1.85;;;17.30;99.90;;;;;;4977633;28;20670;-74
2023/05/08 14:53:53;;;;;;;1.55;1.55;;;17.40;99.90;;;;;;4977727;28;20199;-74
2023/05/08 14:56:23;;;;;;;2.25;1.40;;;17.60;99.90;;;;;;4978377;28;20618;-74
2023/05/08 14:58:51;;;;;;;1.25;1.25;;;17.60;99.90;;;;;;4977161;28;20678;-74
2023/05/08 15:01:18;;;;;;;1.17;1.17;;;17.70;99.90;;;;;;4977278;28;20210;-74
2023/05/08 15:03:46;;;;;;;1.10;1.10;;;17.70;99.90;;;;;;4977561;28;20667;-74
2023/05/08 15:06:12;;;;;;;1.10;1.10;;;17.80;99.90;;;;;;4978626;28;20202;-75
2023/05/08 15:08:39;;;;;;;1.40;1.40;;;17.80;99.90;;;;;;4978136;28;20230;-74
2023/05/08 15:11:06;;;;;;;1.00;1.00;;;17.90;99.90;;;;;;4977388;28;20203;-73
2023/05/08 15:13:32;;;;;;;1.08;1.08;;;17.90;99.90;;;;;;4977243;28;20199;-74
2023/05/08 15:16:00;;;;;;;2.63;0.70;;;17.90;99.90;;;;;;4977923;28;20210;-74
2023/05/08 15:18:28;;;;;;;0.93;0.93;;;18.00;99.90;;;;;;4977295;28;20694;-76
2023/05/08 15:20:56;;;;;;;1.20;1.20;;;18.20;99.90;;;;;;4977564;28;20217;-74
2023/05/08 15:23:23;;;;;;;1.10;1.10;;;18.20;99.90;;;;;;4977262;28;20299;-75
2023/05/08 15:25:50;;;;;;;1.13;1.05;;;18.20;99.90;;;;;;4977295;28;20202;-75
2023/05/08 15:28:16;;;;;;;1.20;1.10;;;18.20;99.90;;;;;;4977033;28;20219;-74
2023/05/08 15:30:45;;;;;;;1.02;1.02;;;18.40;99.90;;;;;;4977119;28;20202;-75
2023/05/08 15:33:14;;;;;;;1.38;1.20;;;18.40;99.90;;;;;;4977050;28;20274;-75
2023/05/08 15:35:41;;;;;;;1.10;1.10;;;18.50;99.90;;;;;;4976828;28;20203;-75
2023/05/08 15:38:10;;;;;;;0.80;0.80;;;18.50;99.90;;;;;;4976740;28;20293;-75
2023/05/08 15:40:38;;;;;;;0.82;0.82;;;18.50;99.90;;;;;;4976607;28;20741;-75
2023/05/08 15:43:05;;;;;;;0.80;0.80;;;18.50;99.90;;;;;;4976650;28;20202;-75
2023/05/08 15:45:32;;;;;;;1.00;0.80;;;18.40;99.90;;;;;;4976474;28;20233;-75
2023/05/08 15:47:58;;;;;;;0.90;0.90;;;18.30;99.90;;;;;;4976652;28;20215;-73
2023/05/08 15:50:26;;;;;;;0.60;0.60;;;18.20;99.90;;;;;;4987148;28;20203;-72
2023/05/08 15:52:53;;;;;;;0.85;0.85;;;18.20;99.90;;;;;;4991897;28;20251;-73
2023/05/08 15:55:20;;;;;;;0.70;0.70;;;18.10;99.90;;;;;;4990772;28;20207;-74
2023/05/08 15:57:47;;;;;;;0.70;0.70;;;18.10;99.90;;;;;;4991221;28;20262;-73
2023/05/08 16:00:15;;;;;;;0.70;0.70;;;18.00;99.90;;;;;;4984105;28;20218;-74
2023/05/08 16:02:41;;;;;;;0.70;0.70;;;17.80;99.90;;;;;;4980533;28;20218;-73
2023/05/08 16:05:12;;;;;;;0.60;0.60;;;17.70;99.90;;;;;;4979597;28;20202;-73
2023/05/08 16:07:40;;;;;;;0.57;0.57;;;17.70;99.90;;;;;;4976783;28;20665;-73
2023/05/08 16:10:08;;;;;;;0.70;0.70;;;17.60;99.90;;;;;;4976880;28;20199;-74
2023/05/08 16:12:35;;;;;;;0.60;0.60;;;17.60;99.90;;;;;;4976845;28;20293;-75
2023/05/08 16:15:02;;;;;;;0.70;0.70;;;17.30;99.90;;;;;;4976249;28;20678;-74
2023/05/08 16:17:29;;;;;;;0.60;0.60;;;17.30;99.90;;;;;;4976617;28;20226;-74
2023/05/08 16:19:56;;;;;;;0.70;0.70;;;17.20;99.90;;;;;;4976365;28;20323;-74
2023/05/08 16:22:23;;;;;;;0.70;0.70;;;17.10;99.90;;;;;;4976302;28;20638;-74
2023/05/08 16:24:53;;;;;;;0.77;0.77;;;17.10;99.90;;;;;;4976114;28;20207;-74
2023/05/08 16:27:20;;;;;;;0.80;0.80;;;17.00;99.90;;;;;;4975963;28;20327;-73
2023/05/08 16:29:47;;;;;;;1.58;1.00;;;17.00;99.90;;;;;;4975889;28;20214;-74
2023/05/08 16:32:15;;;;;;;4.95;1.27;;;16.90;99.90;;;;;;4975007;28;20206;-73
2023/05/08 16:34:42;;;;;;;2.63;0.90;;;16.90;99.90;;;;;;4975661;28;20556;-74
2023/05/08 16:37:10;;;;;;;0.70;0.70;;;16.70;99.90;;;;;;4976211;28;20350;-74
2023/05/08 16:39:37;;;;;;;0.60;0.60;;;16.60;99.90;;;;;;4978769;28;20261;-74
2023/05/08 16:42:06;;;;;;;1.00;1.00;;;16.60;99.90;;;;;;4977239;28;20210;-74
2023/05/08 16:44:34;;;;;;;0.70;0.70;;;16.50;99.90;;;;;;4978535;28;20207;-74
2023/05/08 16:47:02;;;;;;;0.50;0.50;;;16.50;99.90;;;;;;4979038;28;20215;-73
2023/05/08 16:49:29;;;;;;;0.70;0.70;;;16.50;99.90;;;;;;4979572;28;20199;-78
2023/05/08 16:51:56;;;;;;;0.80;0.80;;;16.50;99.90;;;;;;4980518;28;20203;-74